sensor_id;sensor_type;location;lat;lon;timestamp;pressure;altitude;pressure_sealevel;temperature;humidity
16580;BME280;8402;51.466;6.806;2023-02-21T00:00:38;101777.91;;;9.90;100.00
16580;BME280;8402;51.466;6.806;2023-02-21T00:03:44;101786.34;;;9.88;100.00
16580;BME280;8402;51.466;6.806;2023-02-21T00:06:45;101777.72;;;9.81;100.00
16580;BME280;8402;51.466;6.806;2023-02-21T00:09:31;101782.03;;;9.87;100.00
16580;BME280;8402;51.466;6.806;2023-02-21T00:12:25;101781.72;;;9.89;100.00
16580;BME280;8402;51.466;6.806;2023-02-21T00:15:10;101778.50;;;9.87;100.00
16580;BME280;8402;51.466;6.806;2023-02-21T00:17:56;101788.75;;;9.90;100.00
16580;BME280;8402;51.466;6.806;2023-02-21T00:20:40;101781.72;;;9.89;100.00
16580;BME280;8402;51.466;6.806;2023-02-21T00:23:31;101773.59;;;9.89;100.00
16580;BME280;8402;51.466;6.806;2023-02-21T00:26:34;101787.72;;;9.86;100.00
16580;BME280;8402;51.466;6.806;2023-02-21T00:29:18;101780.91;;;9.88;100.00
16580;BME280;8402;51.466;6.806;2023-02-21T00:32:12;101786.34;;;9.88;100.00
16580;BME280;8402;51.466;6.806;2023-02-21T00:34:54;101784.41;;;9.94;100.00
16580;BME280;8402;51.466;6.806;2023-02-21T00:37:37;101786.03;;;9.95;100.00
16580;BME280;8402;51.466;6.806;2023-02-21T00:40:27;101784.94;;;9.96;100.00
16580;BME280;8402;51.466;6.806;2023-02-21T00:43:12;101784.41;;;9.94;100.00
16580;BME280;8402;51.466;6.806;2023-02-21T00:46:05;101771.94;;;9.93;100.00
16580;BME280;8402;51.466;6.806;2023-02-21T00:48:57;101777.41;;;9.88;100.00
16580;BME280;8402;51.466;6.806;2023-02-21T00:51:55;101778.03;;;9.80;100.00
16580;BME280;8402;51.466;6.806;2023-02-21T00:54:48;101779.84;;;9.84;100.00
16580;BME280;8402;51.466;6.806;2023-02-21T00:57:40;101780.66;;;9.85;100.00
16580;BME280;8402;51.466;6.806;2023-02-21T01:00:29;101782.03;;;9.87;100.00
16580;BME280;8402;51.466;6.806;2023-02-21T01:03:12;101781.25;;;9.82;100.00
16580;BME280;8402;51.466;6.806;2023-02-21T01:06:04;101773.13;;;9.82;100.00
16580;BME280;8402;51.466;6.806;2023-02-21T01:08:57;101762.56;;;9.80;100.00
16580;BME280;8402;51.466;6.806;2023-02-21T01:11:48;101760.94;;;9.79;100.00
16580;BME280;8402;51.466;6.806;2023-02-21T01:14:30;101772.00;;;9.83;100.00
16580;BME280;8402;51.466;6.806;2023-02-21T01:17:17;101758.50;;;9.78;100.00
16580;BME280;8402;51.466;6.806;2023-02-21T01:20:02;101755.84;;;9.73;100.00
16580;BME280;8402;51.466;6.806;2023-02-21T01:23:01;101752.59;;;9.71;100.00
16580;BME280;8402;51.466;6.806;2023-02-21T01:25:49;101752.03;;;9.74;100.00
16580;BME280;8402;51.466;6.806;2023-02-21T01:28:55;101746.09;;;9.72;100.00
16580;BME280;8402;51.466;6.806;2023-02-21T01:34:37;101745.50;;;9.80;100.00
16580;BME280;8402;51.466;6.806;2023-02-21T01:37:48;101749.28;;;9.79;100.00
16580;BME280;8402;51.466;6.806;2023-02-21T01:40:33;101741.09;;;9.84;100.00
16580;BME280;8402;51.466;6.806;2023-02-21T01:43:32;101734.06;;;9.83;100.00
16580;BME280;8402;51.466;6.806;2023-02-21T01:46:26;101735.69;;;9.84;100.00
16580;BME280;8402;51.466;6.806;2023-02-21T01:49:14;101731.13;;;9.79;100.00
16580;BME280;8402;51.466;6.806;2023-02-21T01:52:11;101736.00;;;9.77;100.00
16580;BME280;8402;51.466;6.806;2023-02-21T01:55:00;101744.75;;;9.69;100.00
16580;BME280;8402;51.466;6.806;2023-02-21T01:57:50;101729.84;;;9.72;100.00
16580;BME280;8402;51.466;6.806;2023-02-21T02:00:39;101738.78;;;9.72;100.00
16580;BME280;8402;51.466;6.806;2023-02-21T02:03:23;101737.97;;;9.72;100.00
16580;BME280;8402;51.466;6.806;2023-02-21T02:06:15;101729.28;;;9.70;100.00
16580;BME280;8402;51.466;6.806;2023-02-21T02:09:23;101726.06;;;9.68;100.00
16580;BME280;8402;51.466;6.806;2023-02-21T02:15:31;101725.56;;;9.65;100.00
16580;BME280;8402;51.466;6.806;2023-02-21T02:24:46;101726.38;;;9.61;100.00
16580;BME280;8402;51.466;6.806;2023-02-21T02:27:56;101731.81;;;9.61;100.00
16580;BME280;8402;51.466;6.806;2023-02-21T02:36:59;101720.06;;;9.71;100.00
16580;BME280;8402;51.466;6.806;2023-02-21T02:39:46;101716.28;;;9.72;100.00
16580;BME280;8402;51.466;6.806;2023-02-21T02:42:25;101711.41;;;9.69;100.00
16580;BME280;8402;51.466;6.806;2023-02-21T02:45:10;101711.94;;;9.71;100.00
16580;BME280;8402;51.466;6.806;2023-02-21T02:47:43;101713.84;;;9.70;100.00
16580;BME280;8402;51.466;6.806;2023-02-21T02:50:23;101709.00;;;9.67;100.00
16580;BME280;8402;51.466;6.806;2023-02-21T02:53:20;101710.66;;;9.63;100.00
16580;BME280;8402;51.466;6.806;2023-02-21T02:56:19;101709.31;;;9.60;100.00
16580;BME280;8402;51.466;6.806;2023-02-21T02:59:03;101708.75;;;9.63;100.00
16580;BME280;8402;51.466;6.806;2023-02-21T03:02:03;101709.66;;;9.54;100.00
16580;BME280;8402;51.466;6.806;2023-02-21T03:05:16;101710.44;;;9.54;100.00
16580;BME280;8402;51.466;6.806;2023-02-21T03:07:57;101706.63;;;9.60;100.00
16580;BME280;8402;51.466;6.806;2023-02-21T03:10:38;101703.66;;;9.57;100.00
16580;BME280;8402;51.466;6.806;2023-02-21T03:13:18;101706.31;;;9.62;100.00
16580;BME280;8402;51.466;6.806;2023-02-21T03:15:54;101708.19;;;9.67;100.00
16580;BME280;8402;51.466;6.806;2023-02-21T03:18:29;101706.00;;;9.69;100.00
16580;BME280;8402;51.466;6.806;2023-02-21T03:21:29;101710.13;;;9.61;100.00
16580;BME280;8402;51.466;6.806;2023-02-21T03:24:03;101710.38;;;9.64;100.00
16580;BME280;8402;51.466;6.806;2023-02-21T03:26:41;101719.03;;;9.67;100.00
16580;BME280;8402;51.466;6.806;2023-02-21T03:29:36;101713.63;;;9.67;100.00
16580;BME280;8402;51.466;6.806;2023-02-21T03:32:21;101717.41;;;9.65;100.00
16580;BME280;8402;51.466;6.806;2023-02-21T03:34:59;101714.41;;;9.67;100.00
16580;BME280;8402;51.466;6.806;2023-02-21T03:37:50;101713.84;;;9.70;100.00
16580;BME280;8402;51.466;6.806;2023-02-21T03:40:48;101713.03;;;9.70;100.00
16580;BME280;8402;51.466;6.806;2023-02-21T03:43:30;101711.19;;;9.65;100.00
16580;BME280;8402;51.466;6.806;2023-02-21T03:46:26;101707.09;;;9.68;100.00
16580;BME280;8402;51.466;6.806;2023-02-21T03:49:08;101709.81;;;9.68;100.00
16580;BME280;8402;51.466;6.806;2023-02-21T03:51:41;101709.81;;;9.68;100.00
16580;BME280;8402;51.466;6.806;2023-02-21T03:54:23;101714.13;;;9.69;100.00
16580;BME280;8402;51.466;6.806;2023-02-21T03:57:00;101710.28;;;9.75;100.00
16580;BME280;8402;51.466;6.806;2023-02-21T03:59:53;101704.38;;;9.68;100.00
16580;BME280;8402;51.466;6.806;2023-02-21T04:02:23;101707.63;;;9.70;100.00
16580;BME280;8402;51.466;6.806;2023-02-21T04:05:01;101709.53;;;9.69;100.00
16580;BME280;8402;51.466;6.806;2023-02-21T04:07:39;101707.63;;;9.70;100.00
16580;BME280;8402;51.466;6.806;2023-02-21T04:10:12;101715.22;;;9.68;100.00
16580;BME280;8402;51.466;6.806;2023-02-21T04:12:52;101711.44;;;9.63;100.00
16580;BME280;8402;51.466;6.806;2023-02-21T04:15:29;101713.34;;;9.63;100.00
16580;BME280;8402;51.466;6.806;2023-02-21T04:18:02;101715.81;;;9.64;100.00
16580;BME280;8402;51.466;6.806;2023-02-21T04:20:35;101708.75;;;9.63;100.00
16580;BME280;8402;51.466;6.806;2023-02-21T04:23:06;101719.03;;;9.67;100.00
16580;BME280;8402;51.466;6.806;2023-02-21T04:25:42;101715.81;;;9.64;100.00
16580;BME280;8402;51.466;6.806;2023-02-21T04:28:15;101710.63;;;9.68;100.00
16580;BME280;8402;51.466;6.806;2023-02-21T04:34:14;101716.31;;;9.67;100.00
16580;BME280;8402;51.466;6.806;2023-02-21T04:36:44;101714.09;;;9.74;100.00
16580;BME280;8402;51.466;6.806;2023-02-21T04:39:15;101713.81;;;9.75;100.00
16580;BME280;8402;51.466;6.806;2023-02-21T04:42:00;101711.91;;;9.76;100.00
16580;BME280;8402;51.466;6.806;2023-02-21T04:44:37;101707.06;;;9.73;100.00
16580;BME280;8402;51.466;6.806;2023-02-21T04:47:22;101703.25;;;9.74;100.00
16580;BME280;8402;51.466;6.806;2023-02-21T04:49:55;101709.72;;;9.78;100.00
16580;BME280;8402;51.466;6.806;2023-02-21T04:52:33;101702.13;;;9.80;100.00
16580;BME280;8402;51.466;6.806;2023-02-21T04:55:08;101695.66;;;9.76;100.00
16580;BME280;8402;51.466;6.806;2023-02-21T04:57:47;101700.25;;;9.75;100.00
16580;BME280;8402;51.466;6.806;2023-02-21T05:00:23;101694.06;;;9.70;100.00
16580;BME280;8402;51.466;6.806;2023-02-21T05:02:58;101695.16;;;9.69;100.00
16580;BME280;8402;51.466;6.806;2023-02-21T05:05:34;101697.34;;;9.67;100.00
16580;BME280;8402;51.466;6.806;2023-02-21T05:08:11;101694.94;;;9.65;100.00
16580;BME280;8402;51.466;6.806;2023-02-21T05:10:42;101702.53;;;9.63;100.00
16580;BME280;8402;51.466;6.806;2023-02-21T05:13:16;101694.66;;;9.67;100.00
16580;BME280;8402;51.466;6.806;2023-02-21T05:15:53;101699.00;;;9.62;100.00
16580;BME280;8402;51.466;6.806;2023-02-21T05:18:26;101704.41;;;9.62;100.00
16580;BME280;8402;51.466;6.806;2023-02-21T05:21:06;101703.91;;;9.60;100.00
16580;BME280;8402;51.466;6.806;2023-02-21T05:23:41;101704.50;;;9.57;100.00
16580;BME280;8402;51.466;6.806;2023-02-21T05:26:31;101707.19;;;9.57;100.00
16580;BME280;8402;51.466;6.806;2023-02-21T05:29:13;101709.31;;;9.60;100.00
16580;BME280;8402;51.466;6.806;2023-02-21T05:31:47;101710.94;;;9.61;100.00
16580;BME280;8402;51.466;6.806;2023-02-21T05:34:24;101707.72;;;9.59;100.00
16580;BME280;8402;51.466;6.806;2023-02-21T05:36:59;101705.53;;;9.61;100.00
16580;BME280;8402;51.466;6.806;2023-02-21T05:39:44;101709.31;;;9.60;100.00
16580;BME280;8402;51.466;6.806;2023-02-21T05:42:30;101703.63;;;9.62;100.00
16580;BME280;8402;51.466;6.806;2023-02-21T05:45:08;101698.50;;;9.60;100.00
16580;BME280;8402;51.466;6.806;2023-02-21T05:47:47;101688.22;;;9.57;100.00
16580;BME280;8402;51.466;6.806;2023-02-21T05:50:51;101702.84;;;9.56;100.00
16580;BME280;8402;51.466;6.806;2023-02-21T05:53:21;101700.69;;;9.58;100.00
16580;BME280;8402;51.466;6.806;2023-02-21T05:55:59;101696.88;;;9.59;100.00
16580;BME280;8402;51.466;6.806;2023-02-21T05:58:29;101702.28;;;9.59;100.00
16580;BME280;8402;51.466;6.806;2023-02-21T06:01:22;101705.03;;;9.54;100.00
16580;BME280;8402;51.466;6.806;2023-02-21T06:03:55;101696.91;;;9.54;100.00
16580;BME280;8402;51.466;6.806;2023-02-21T06:06:38;101696.41;;;9.47;100.00
16580;BME280;8402;51.466;6.806;2023-02-21T06:09:11;101696.13;;;9.49;100.00
16580;BME280;8402;51.466;6.806;2023-02-21T06:11:42;101703.44;;;9.53;100.00
16580;BME280;8402;51.466;6.806;2023-02-21T06:14:24;101703.44;;;9.53;100.00
16580;BME280;8402;51.466;6.806;2023-02-21T06:16:59;101707.22;;;9.52;100.00
16580;BME280;8402;51.466;6.806;2023-02-21T06:19:32;101696.41;;;9.47;100.00
16580;BME280;8402;51.466;6.806;2023-02-21T06:22:07;101698.63;;;9.45;100.00
16580;BME280;8402;51.466;6.806;2023-02-21T06:25:02;101697.84;;;9.40;100.00
16580;BME280;8402;51.466;6.806;2023-02-21T06:27:35;101688.31;;;9.42;100.00
16580;BME280;8402;51.466;6.806;2023-02-21T06:30:30;101699.44;;;9.41;100.00
16580;BME280;8402;51.466;6.806;2023-02-21T06:33:03;101687.78;;;9.45;100.00
16580;BME280;8402;51.466;6.806;2023-02-21T06:35:38;101695.09;;;9.45;100.00
16580;BME280;8402;51.466;6.806;2023-02-21T06:38:21;101710.25;;;9.46;100.00
16580;BME280;8402;51.466;6.806;2023-02-21T06:41:18;101700.50;;;9.45;100.00
16580;BME280;8402;51.466;6.806;2023-02-21T06:43:54;101700.75;;;9.48;100.00
16580;BME280;8402;51.466;6.806;2023-02-21T06:46:48;101695.94;;;9.40;100.00
16580;BME280;8402;51.466;6.806;2023-02-21T06:49:23;101697.53;;;9.46;100.00
16580;BME280;8402;51.466;6.806;2023-02-21T06:51:59;101692.09;;;9.46;100.00
16580;BME280;8402;51.466;6.806;2023-02-21T06:54:41;101712.69;;;9.47;100.00
16580;BME280;8402;51.466;6.806;2023-02-21T06:57:37;101696.72;;;9.46;100.00
16580;BME280;8402;51.466;6.806;2023-02-21T07:00:11;101706.22;;;9.43;100.00
16580;BME280;8402;51.466;6.806;2023-02-21T07:02:49;101700.84;;;9.38;100.00
16580;BME280;8402;51.466;6.806;2023-02-21T07:05:27;101708.44;;;9.36;100.00
16580;BME280;8402;51.466;6.806;2023-02-21T07:08:12;101707.38;;;9.32;100.00
16580;BME280;8402;51.466;6.806;2023-02-21T07:10:48;101706.78;;;9.35;100.00
16580;BME280;8402;51.466;6.806;2023-02-21T07:13:18;101708.75;;;9.29;100.00
16580;BME280;8402;51.466;6.806;2023-02-21T07:15:53;101706.31;;;9.28;100.00
16580;BME280;8402;51.466;6.806;2023-02-21T07:18:31;101713.88;;;9.31;100.00
16580;BME280;8402;51.466;6.806;2023-02-21T07:21:26;101716.06;;;9.29;100.00
16580;BME280;8402;51.466;6.806;2023-02-21T07:23:56;101710.69;;;9.24;100.00
16580;BME280;8402;51.466;6.806;2023-02-21T07:26:34;101719.59;;;9.29;100.00
16580;BME280;8402;51.466;6.806;2023-02-21T07:29:07;101719.81;;;9.33;100.00
16580;BME280;8402;51.466;6.806;2023-02-21T07:31:38;101711.19;;;9.31;100.00
16580;BME280;8402;51.466;6.806;2023-02-21T07:34:16;101707.94;;;9.29;100.00
16580;BME280;8402;51.466;6.806;2023-02-21T07:36:48;101715.47;;;9.37;100.00
16580;BME280;8402;51.466;6.806;2023-02-21T07:39:23;101714.41;;;9.33;100.00
16580;BME280;8402;51.466;6.806;2023-02-21T07:41:58;101721.44;;;9.34;100.00
16580;BME280;8402;51.466;6.806;2023-02-21T07:44:29;101709.00;;;9.33;100.00
16580;BME280;8402;51.466;6.806;2023-02-21T07:47:07;101714.97;;;9.30;100.00
16580;BME280;8402;51.466;6.806;2023-02-21T07:49:51;101707.94;;;9.29;100.00
16580;BME280;8402;51.466;6.806;2023-02-21T07:52:28;101725.25;;;9.33;100.00
16580;BME280;8402;51.466;6.806;2023-02-21T07:55:06;101719.53;;;9.34;100.00
16580;BME280;8402;51.466;6.806;2023-02-21T07:57:54;101724.44;;;9.32;100.00
16580;BME280;8402;51.466;6.806;2023-02-21T08:00:32;101709.56;;;9.30;100.00
16580;BME280;8402;51.466;6.806;2023-02-21T08:03:08;101714.72;;;9.26;100.00
16580;BME280;8402;51.466;6.806;2023-02-21T08:05:48;101709.88;;;9.23;100.00
16580;BME280;8402;51.466;6.806;2023-02-21T08:08:21;101730.13;;;9.31;100.00
16580;BME280;8402;51.466;6.806;2023-02-21T08:11:02;101722.00;;;9.31;100.00
16580;BME280;8402;51.466;6.806;2023-02-21T08:13:50;101706.88;;;9.25;100.00
16580;BME280;8402;51.466;6.806;2023-02-21T08:16:23;101714.19;;;9.29;100.00
16580;BME280;8402;51.466;6.806;2023-02-21T08:19:04;101718.22;;;9.27;100.00
16580;BME280;8402;51.466;6.806;2023-02-21T08:21:50;101716.63;;;9.26;100.00
16580;BME280;8402;51.466;6.806;2023-02-21T08:24:25;101724.47;;;9.27;100.00
16580;BME280;8402;51.466;6.806;2023-02-21T08:27:15;101726.34;;;9.27;100.00
16580;BME280;8402;51.466;6.806;2023-02-21T08:29:52;101727.13;;;9.32;100.00
16580;BME280;8402;51.466;6.806;2023-02-21T08:32:35;101728.47;;;9.35;100.00
16580;BME280;8402;51.466;6.806;2023-02-21T08:35:12;101723.31;;;9.38;100.00
16580;BME280;8402;51.466;6.806;2023-02-21T08:37:54;101718.94;;;9.43;100.00
16580;BME280;8402;51.466;6.806;2023-02-21T08:40:32;101721.38;;;9.44;100.00
16580;BME280;8402;51.466;6.806;2023-02-21T08:43:07;101727.31;;;9.46;100.00
16580;BME280;8402;51.466;6.806;2023-02-21T08:45:43;101730.59;;;9.43;100.00
16580;BME280;8402;51.466;6.806;2023-02-21T08:48:33;101733.84;;;9.40;100.00
16580;BME280;8402;51.466;6.806;2023-02-21T08:51:22;101734.38;;;9.42;100.00
16580;BME280;8402;51.466;6.806;2023-02-21T08:54:00;101724.13;;;9.39;100.00
16580;BME280;8402;51.466;6.806;2023-02-21T08:56:34;101730.34;;;9.40;100.00
16580;BME280;8402;51.466;6.806;2023-02-21T08:59:06;101720.31;;;9.40;100.00
16580;BME280;8402;51.466;6.806;2023-02-21T09:01:56;101719.28;;;9.36;100.00
16580;BME280;8402;51.466;6.806;2023-02-21T09:04:30;101720.88;;;9.37;100.00
16580;BME280;8402;51.466;6.806;2023-02-21T09:07:05;101715.47;;;9.37;100.00
16580;BME280;8402;51.466;6.806;2023-02-21T09:09:38;101717.59;;;9.40;100.00
16580;BME280;8402;51.466;6.806;2023-02-21T09:12:20;101712.19;;;9.40;100.00
16580;BME280;8402;51.466;6.806;2023-02-21T09:14:52;101718.69;;;9.39;100.00
16580;BME280;8402;51.466;6.806;2023-02-21T09:17:35;101709.50;;;9.35;100.00
16580;BME280;8402;51.466;6.806;2023-02-21T09:20:13;101711.66;;;9.38;100.00
16580;BME280;8402;51.466;6.806;2023-02-21T09:22:53;101714.38;;;9.38;100.00
16580;BME280;8402;51.466;6.806;2023-02-21T09:25:28;101708.94;;;9.43;100.00
16580;BME280;8402;51.466;6.806;2023-02-21T09:28:28;101708.38;;;9.41;100.00
16580;BME280;8402;51.466;6.806;2023-02-21T09:31:00;101704.53;;;9.52;100.00
16580;BME280;8402;51.466;6.806;2023-02-21T09:33:39;101711.56;;;9.53;100.00
16580;BME280;8402;51.466;6.806;2023-02-21T09:36:21;101706.13;;;9.53;100.00
16580;BME280;8402;51.466;6.806;2023-02-21T09:39:08;101697.72;;;9.55;100.00
16580;BME280;8402;51.466;6.806;2023-02-21T09:41:43;101701.19;;;9.60;100.00
16580;BME280;8402;51.466;6.806;2023-02-21T09:44:17;101696.88;;;9.59;100.00
16580;BME280;8402;51.466;6.806;2023-02-21T09:46:54;101702.28;;;9.59;100.00
16580;BME280;8402;51.466;6.806;2023-02-21T09:49:31;101693.66;;;9.57;100.00
16580;BME280;8402;51.466;6.806;2023-02-21T09:52:18;101698.50;;;9.60;100.00
16580;BME280;8402;51.466;6.806;2023-02-21T09:54:56;101696.56;;;9.66;100.00
16580;BME280;8402;51.466;6.806;2023-02-21T09:57:31;101696.78;;;9.70;100.00
16580;BME280;8402;51.466;6.806;2023-02-21T10:00:20;101700.06;;;9.67;100.00
16580;BME280;8402;51.466;6.806;2023-02-21T10:02:59;101697.88;;;9.69;100.00
16580;BME280;8402;51.466;6.806;2023-02-21T10:06:00;101700.59;;;9.69;100.00
16580;BME280;8402;51.466;6.806;2023-02-21T10:08:40;101692.97;;;9.71;100.00
16580;BME280;8402;51.466;6.806;2023-02-21T10:11:31;101694.66;;;9.67;100.00
16580;BME280;8402;51.466;6.806;2023-02-21T10:14:22;101693.25;;;9.69;100.00
16580;BME280;8402;51.466;6.806;2023-02-21T10:17:12;101692.41;;;9.74;100.00
16580;BME280;8402;51.466;6.806;2023-02-21T10:20:04;101708.16;;;9.72;100.00
16580;BME280;8402;51.466;6.806;2023-02-21T10:22:43;101707.53;;;9.80;100.00
16580;BME280;8402;51.466;6.806;2023-02-21T10:25:22;101707.75;;;9.83;100.00
16580;BME280;8402;51.466;6.806;2023-02-21T10:28:16;101707.22;;;9.86;100.00
16580;BME280;8402;51.466;6.806;2023-02-21T10:31:10;101701.97;;;9.95;100.00
16580;BME280;8402;51.466;6.806;2023-02-21T10:33:56;101692.69;;;10.01;100.00
16580;BME280;8402;51.466;6.806;2023-02-21T10:36:31;101693.72;;;10.05;100.00
16580;BME280;8402;51.466;6.806;2023-02-21T10:39:16;101693.72;;;10.05;100.00
16580;BME280;8402;51.466;6.806;2023-02-21T10:41:48;101694.19;;;10.12;100.00
16580;BME280;8402;51.466;6.806;2023-02-21T10:44:28;101693.91;;;10.14;100.00
16580;BME280;8402;51.466;6.806;2023-02-21T10:47:01;101696.06;;;10.17;100.00
16580;BME280;8402;51.466;6.806;2023-02-21T10:49:39;101694.16;;;10.17;100.00
16580;BME280;8402;51.466;6.806;2023-02-21T10:52:18;101698.47;;;10.18;100.00
16580;BME280;8402;51.466;6.806;2023-02-21T10:55:06;101701.22;;;10.13;100.00
16580;BME280;8402;51.466;6.806;2023-02-21T10:58:08;101703.38;;;10.16;100.00
16580;BME280;8402;51.466;6.806;2023-02-21T11:01:16;101700.88;;;10.20;100.00
16580;BME280;8402;51.466;6.806;2023-02-21T11:04:23;101700.88;;;10.20;100.00
16580;BME280;8402;51.466;6.806;2023-02-21T11:07:20;101693.28;;;10.22;100.00
16580;BME280;8402;51.466;6.806;2023-02-21T11:10:26;101692.44;;;10.27;100.00
16580;BME280;8402;51.466;6.806;2023-02-21T11:13:14;101693.00;;;10.29;100.00
16580;BME280;8402;51.466;6.806;2023-02-21T11:16:17;101692.41;;;10.32;100.00
16580;BME280;8402;51.466;6.806;2023-02-21T11:21:59;101685.22;;;10.41;100.00
16580;BME280;8402;51.466;6.806;2023-02-21T11:28:00;101687.09;;;10.45;100.00
16580;BME280;8402;51.466;6.806;2023-02-21T11:30:38;101685.69;;;10.48;100.00
16580;BME280;8402;51.466;6.806;2023-02-21T11:33:18;101679.09;;;10.54;100.00
16580;BME280;8402;51.466;6.806;2023-02-21T11:36:05;101676.25;;;10.64;100.00
16580;BME280;8402;51.466;6.806;2023-02-21T11:38:43;101671.81;;;10.73;100.00
16580;BME280;8402;51.466;6.806;2023-02-21T11:41:34;101672.91;;;10.72;100.00
16580;BME280;8402;51.466;6.806;2023-02-21T11:44:31;101653.91;;;10.72;100.00
16580;BME280;8402;51.466;6.806;2023-02-21T11:47:15;101655.97;;;10.81;100.00
16580;BME280;8402;51.466;6.806;2023-02-21T11:49:55;101651.03;;;10.83;100.00
16580;BME280;8402;51.466;6.806;2023-02-21T11:52:35;101656.41;;;10.88;100.00
16580;BME280;8402;51.466;6.806;2023-02-21T11:55:21;101650.97;;;10.88;100.00
16580;BME280;8402;51.466;6.806;2023-02-21T11:58:00;101651.47;;;10.90;100.00
16580;BME280;8402;51.466;6.806;2023-02-21T12:00:49;101647.16;;;10.89;100.00
16580;BME280;8402;51.466;6.806;2023-02-21T12:03:46;101641.91;;;10.92;100.00
16580;BME280;8402;51.466;6.806;2023-02-21T12:06:28;101640.53;;;10.95;100.00
16580;BME280;8402;51.466;6.806;2023-02-21T12:09:09;101647.78;;;10.99;100.00
16580;BME280;8402;51.466;6.806;2023-02-21T12:12:01;101638.78;;;11.04;100.00
16580;BME280;8402;51.466;6.806;2023-02-21T12:14:53;101637.00;;;11.13;100.00
16580;BME280;8402;51.466;6.806;2023-02-21T12:21:01;101641.63;;;11.13;100.00
16580;BME280;8402;51.466;6.806;2023-02-21T12:23:46;101642.59;;;11.22;100.00
16580;BME280;8402;51.466;6.806;2023-02-21T12:26:44;101638.03;;;11.17;100.00
16580;BME280;8402;51.466;6.806;2023-02-21T12:29:33;101624.94;;;11.19;100.00
16580;BME280;8402;51.466;6.806;2023-02-21T12:32:34;101623.34;;;11.18;100.00
16580;BME280;8402;51.466;6.806;2023-02-21T12:35:48;101631.50;;;11.18;100.00
16580;BME280;8402;51.466;6.806;2023-02-21T12:38:46;101629.81;;;11.22;100.00
16580;BME280;8402;51.466;6.806;2023-02-21T12:41:45;101613.94;;;11.29;100.00
16580;BME280;8402;51.466;6.806;2023-02-21T12:44:25;101611.50;;;11.28;100.00
16580;BME280;8402;51.466;6.806;2023-02-21T12:47:08;101613.13;;;11.29;100.00
16580;BME280;8402;51.466;6.806;2023-02-21T12:49:44;101613.94;;;11.29;100.00
16580;BME280;8402;51.466;6.806;2023-02-21T12:52:31;101602.84;;;11.26;100.00
16580;BME280;8402;51.466;6.806;2023-02-21T12:55:05;101604.16;;;11.28;100.00
16580;BME280;8402;51.466;6.806;2023-02-21T12:57:57;101597.63;;;11.29;100.00
16580;BME280;8402;51.466;6.806;2023-02-21T13:00:42;101605.78;;;11.29;100.00
16580;BME280;8402;51.466;6.806;2023-02-21T13:03:47;101593.38;;;11.23;100.00
16580;BME280;8402;51.466;6.806;2023-02-21T13:06:34;101591.09;;;11.30;100.00
16580;BME280;8402;51.466;6.806;2023-02-21T13:09:19;101593.19;;;11.34;100.00
16580;BME280;8402;51.466;6.806;2023-02-21T13:12:02;101592.63;;;11.37;100.00
16580;BME280;8402;51.466;6.806;2023-02-21T13:14:42;101581.22;;;11.35;100.00
16580;BME280;8402;51.466;6.806;2023-02-21T13:17:22;101581.75;;;11.37;100.00
16580;BME280;8402;51.466;6.806;2023-02-21T13:19:54;101584.97;;;11.39;100.00
16580;BME280;8402;51.466;6.806;2023-02-21T13:26:02;101583.34;;;11.38;100.00
16580;BME280;8402;51.466;6.806;2023-02-21T13:28:41;101569.88;;;11.46;100.00
16580;BME280;8402;51.466;6.806;2023-02-21T13:31:18;101568.47;;;11.49;100.00
16580;BME280;8402;51.466;6.806;2023-02-21T13:33:51;101567.28;;;11.55;100.00
16580;BME280;8402;51.466;6.806;2023-02-21T13:36:29;101558.63;;;11.53;100.00
16580;BME280;8402;51.466;6.806;2023-02-21T13:39:19;101567.88;;;11.52;100.00
16580;BME280;8402;51.466;6.806;2023-02-21T13:42:00;101559.81;;;11.47;100.00
16580;BME280;8402;51.466;6.806;2023-02-21T13:45:21;101557.19;;;11.42;100.00
16580;BME280;8402;51.466;6.806;2023-02-21T13:48:33;101555.00;;;11.44;100.00
16580;BME280;8402;51.466;6.806;2023-02-21T13:54:26;101557.72;;;11.44;100.00
16580;BME280;8402;51.466;6.806;2023-02-21T13:57:34;101550.94;;;11.41;100.00
16580;BME280;8402;51.466;6.806;2023-02-21T14:03:32;101541.50;;;11.39;100.00
16580;BME280;8402;51.466;6.806;2023-02-21T14:06:36;101545.31;;;11.38;100.00
16580;BME280;8402;51.466;6.806;2023-02-21T14:09:14;101541.69;;;11.42;100.00
16580;BME280;8402;51.466;6.806;2023-02-21T14:11:57;101535.44;;;11.42;100.00
16580;BME280;8402;51.466;6.806;2023-02-21T14:14:49;101530.81;;;11.42;100.00
16580;BME280;8402;51.466;6.806;2023-02-21T14:17:29;101536.84;;;11.39;100.00
16580;BME280;8402;51.466;6.806;2023-02-21T14:20:16;101524.97;;;11.35;100.00
16580;BME280;8402;51.466;6.806;2023-02-21T14:23:02;101533.41;;;11.34;100.00
16580;BME280;8402;51.466;6.806;2023-02-21T14:25:34;101531.19;;;11.36;100.00
16580;BME280;8402;51.466;6.806;2023-02-21T14:31:52;101529.59;;;11.35;100.00
16580;BME280;8402;51.466;6.806;2023-02-21T14:35:12;101526.72;;;11.45;100.00
16580;BME280;8402;51.466;6.806;2023-02-21T14:37:43;101523.19;;;11.44;100.00
16580;BME280;8402;51.466;6.806;2023-02-21T14:40:32;101515.03;;;11.44;100.00
16580;BME280;8402;51.466;6.806;2023-02-21T14:43:31;101522.56;;;11.34;100.00
16580;BME280;8402;51.466;6.806;2023-02-21T14:46:45;101526.38;;;11.33;100.00
16580;BME280;8402;51.466;6.806;2023-02-21T14:49:56;101513.03;;;11.36;100.00
16580;BME280;8402;51.466;6.806;2023-02-21T14:53:02;101511.09;;;11.37;100.00
16580;BME280;8402;51.466;6.806;2023-02-21T14:56:02;101517.72;;;11.30;100.00
16580;BME280;8402;51.466;6.806;2023-02-21T15:01:57;101514.50;;;11.28;100.00
16580;BME280;8402;51.466;6.806;2023-02-21T15:04:57;101513.69;;;11.28;100.00
16580;BME280;8402;51.466;6.806;2023-02-21T15:08:10;101510.69;;;11.29;100.00
16580;BME280;8402;51.466;6.806;2023-02-21T15:11:11;101513.09;;;11.31;100.00
16580;BME280;8402;51.466;6.806;2023-02-21T15:14:14;101509.88;;;11.29;100.00
16580;BME280;8402;51.466;6.806;2023-02-21T15:16:54;101512.78;;;11.33;100.00